Aktualne dane pomiarowe

Uwaga, wersja testowa! Automatyczne pobieranie danych za pomocą narzędzi lub skryptów to umożliwiających jest zabronione.

Dane meteo z obszaru Polski uzyskane na podstawie depesz SYNOP pobieranych co godzinę z NWS. Najedź myszką na symbol przedstawiony w tabeli, aby uzyskać informacje co do jego znaczenia. Prosimy pamiętać, że to testowa wersja strony, która jeszcze nie jest ukończona. Stworzono również jest krótki FAQ dotyczący korzystania z tej podstrony Anomalie temperatury w chwili obecnej odniesione są do okresu referencyjnego 1951-2016. Okres ten będzie później zmieniony na 1981-2010. Kliknij ikonę aby pobrać plik CSV. Kliknij ikonę aby wygenerować mapę synoptyczną dla danego terminu.

Wybierz Datę:    

        

Cewice (12136)

Dane terminowe dla wybranej stacji. Kliknij datę, aby otrzymać dane z tego terminu dla wszystkich stacji.

TemperaturaZachmurzenieWiatrCiśnienieOpadyPogoda
 Data t td wb tx tn tg rh  Nt Nl Cl Cm Ch ws wd g1 g2 wx mslp ppp ch 24h 12h t ww ww w1 w2  
2019-07-20 23:00:00 18.5 12.3 14.5--- 6750.0wx-2wx--21014.7 996.6 -0.5---------
2019-07-20 22:00:00 16.5 11.1 13.1--- 7050.0wx-1---11015.2 996.9 0.1---------
2019-07-20 21:00:00 18.0 10.7 13.5--- 6250.0wx-3wx--31015.0 996.8 0.3---------
2019-07-20 20:00:00 18.4 10.7 13.7--- 6150.0wx-wx2wx--21015.2 997.1 0.4---------
2019-07-20 19:00:00 19.4 12.2 14.9--- 6350.0wx-wx3wx--31014.9 996.8 -0.1---------
2019-07-20 18:00:00 21.0 12.8 15.8 26.9 18.3- 5955.0wx-wx5wx-951014.5 996.6 -0.3- 0.012------
2019-07-20 17:00:00 22.4 12.5 16.3--- 5450.0wx-wx5wx--51014.5 996.6 -0.4---------
2019-07-20 16:00:00 24.3 14.8 18.2--- 5555.0wx-wx5wx--51014.6 996.8 -0.5---------
2019-07-20 15:00:00 24.9 14.4 18.2--- 5255.0wx-wx5wx-951014.7 996.9 -0.5---------
2019-07-20 14:00:00 25.6 14.3 18.5--- 5050.0wxwxwx3wx--31014.8 997.0 -0.4---------
2019-07-20 13:00:00 25.9 12.4 17.7--- 4365.0wxwxwxwx2wx-921015.0 997.3 -0.4---------
2019-07-20 12:00:00 25.8 12.3 17.6--- 4355.0wxwxwx2wx--21015.1 997.4 -0.3- 0.06------
2019-07-20 11:00:00 25.1 12.3 17.3--- 4555.0wx-3wx--31015.2 997.5 -0.1---------
2019-07-20 10:00:00 25.4 13.3 17.9--- 4760.0wx-2wx--21015.4 997.7 0.3---------
2019-07-20 09:00:00 23.8 10.7 16.0--- 4455.0wx-1---11015.6 997.8 0.4---------
2019-07-20 08:00:00 21.8 13.4 16.5--- 5950.0wx-3wx--31015.6 997.6 0.5---------
2019-07-20 07:00:00 20.3 13.8 16.1--- 6640.0wx-3wx--31015.5 997.4 0.5---------
2019-07-20 06:00:00 18.4 14.6 15.8 20.0 10.3- 7950.0wx-3wx--31015.5 997.4 0.7 0.0 0.012------
2019-07-20 05:00:00 15.8 14.9 15.1--- 9420.0wx-1wx--11015.5 997.2 0.7---------
2019-07-20 04:00:00 11.4 10.7 10.9--- 9520.0wx-1---11015.5 996.9 0.7---------
2019-07-20 03:00:00 10.3 10.0 10.0--- 9810.0wx-1---11015.4 996.7 0.5---------
2019-07-20 02:00:00 11.5 11.4 11.4--- 9910.0wx-0---01015.1 996.5 0.3---wx---
2019-07-20 01:00:00 12.8 12.2 12.3--- 9630.0wx-wx1---11014.7 996.3 0.1---------
2019-07-20 00:00:00 12.9 12.4 12.5--- 9730.0wx-wx1wx--11014.6 996.1 0.3- 0.06------
2019-07-19 23:00:00 13.8 13.1 13.3--- 9630.0wx-wx2wx--21014.6 996.2 0.3---------
2019-07-19 22:00:00 15.0 13.3 13.8--- 9040.0wx-wx1---11014.5 996.1 0.5---------
2019-07-19 21:00:00 13.7 12.6 12.9--- 9330.0wx-wx2wx--21014.3 995.8 0.5---------
2019-07-19 20:00:00 14.6 12.5 13.1--- 8750.0wx-1wx--11014.2 995.8 0.7---------
2019-07-19 19:00:00 16.6 13.1 14.2--- 8050.0wx-2wx--21013.8 995.6 0.7---------
2019-07-19 18:00:00 19.8 14.0 16.0 25.3 17.5- 6950.0wx-3wx--31013.4 995.3 0.6- 0.012------
2019-07-19 17:00:00 21.3 14.7 17.0--- 6650.0wx-4wx--41013.1 995.2 0.4---------
2019-07-19 16:00:00 22.5 15.3 17.8--- 6455.0wx-5wx--51012.7 994.9 -0.1---------
2019-07-19 15:00:00 24.8 12.2 17.1--- 4560.0wx-wx4wx--41012.4 994.7 -0.3---------
2019-07-19 14:00:00 25.0 7.5 15.1--- 3360.0wx-wxwx1wx--11012.4 994.7 -0.3---------
2019-07-19 13:00:00 24.2 9.7 15.7--- 4065.0wx-wx1wx--11012.7 994.9 -0.2---------
2019-07-19 12:00:00 24.2 8.8 15.3--- 3870.0wxwxwx3wx--31012.8 995.0 -0.2- 0.06------
2019-07-19 11:00:00 23.8 10.3 15.8--- 4365.0wxwxwx2wx--21012.8 995.0 -0.2---------
2019-07-19 10:00:00 23.8 10.2 15.8--- 4255.0wxwxwx1---11012.9 995.1 -0.2---------
2019-07-19 09:00:00 21.9 10.7 15.2--- 4960.0wx-wx1wx--11013.1 995.2 -0.1---------
2019-07-19 08:00:00 21.0 11.4 15.1--- 5460.0wx-wx1wx--11013.2 995.3 0.1---------
2019-07-19 07:00:00 19.7 12.8 15.3--- 6455.0wx-1wx--11013.4 995.3 0.1---------
2019-07-19 06:00:00 17.3 12.5 14.2 17.9 7.2- 7355.0wx-2wx--21013.5 995.4 -0.2 0.0 0.012------
2019-07-19 05:00:00 14.7 12.7 13.3--- 8850.0wx-1wx--11013.7 995.4 -0.5---------
2019-07-19 04:00:00 9.9 9.4 9.5--- 9720.0wx-2wx--21014.1 995.5 -0.6---------
2019-07-19 03:00:00 7.3 7.0 7.0--- 9810.0wx-1wx--11014.5 995.6 -0.4---wx---
2019-07-19 02:00:00 8.0 7.8 7.8--- 995.0wx-1wx--11014.7 995.9 -0.2---wx---
2019-07-19 01:00:00 9.0 8.8 8.8--- 9910.0wx-1wx--11014.8 996.0 0.1---wx---
2019-07-19 00:00:00 9.1 8.9 8.9--- 9910.0wx-1wx--11014.8 996.0 0.1- 0.06wx---
1.7 ms

 

Print Friendly, PDF & Email